• Join FlightAware (Why Join?)
  • Login
  • US Flag 
02:02AM EST


 

Airport Tracker/Info


-or-


 

Live Flight TrackerFlight Track Log ✈ N102WY ✈ 05-Sep-2013 ✈ KRKS - KCYS

Flight Track Log - Related Links

Times and Time Zones

All times are in EDT time to prevent confusion due to time zone crossing. See the N102WY flight status page for this flight to view local times or setup timezone preferences in your user account.

Time Position Orientation Groundspeed Altitude Reporting Facility
EDT Latitude Longitude Course Direction KTS MPH feet Rate Location/Type
02:36PM 41.5711 -108.7908 95° East 279 321 14,800  Level Salt Lake Center
02:37PM 41.5608 -108.6767 97° East 316 364 17,100 2,340 Climbing Salt Lake Center
02:38PM 41.5486 -108.5408 97° East 329 379 19,700 2,580 Climbing Salt Lake Center
02:39PM 41.5381 -108.4283 97° East 321 369 22,500 2,880 Climbing Salt Lake Center
02:40PM 41.5275 -108.3044 96° East 304 350 25,700 2,580 Climbing Salt Lake Center
02:42PM 41.5331 -108.3635 95° East  Level Estimated
02:42PM 41.5181 -108.2025 97° East 293 337 27,900  Level Salt Lake Center
02:43PM 41.5083 -108.0972 97° East 298 343 29,800 1,800 Climbing Salt Lake Center
02:44PM 41.4972 -107.9731 97° East 304 350 31,700 1,440 Climbing Salt Lake Center
02:45PM 41.4861 -107.8592 97° East 318 366 32,800 540 Climbing Salt Lake Center
02:46PM 41.4700 -107.6886 97° East 359 413 33,000 60 Climbing Denver Center
02:47PM 41.4569 -107.5572 98° East 372 428 33,000  Level Denver Center
02:48PM 41.4414 -107.4042 98° East 374 430 33,000  Level Denver Center
02:49PM 41.4286 -107.2714 97° East 378 435 33,000  Level Denver Center
02:50PM 41.4114 -107.0917 97° East 383 441 33,000  Level Denver Center
02:51PM 41.3972 -106.9589 98° East 382 440 33,000 -240 Level Denver Center
02:52PM 41.3817 -106.8047 98° East 377 434 32,600 -720 Descending Denver Center
02:53PM 41.3669 -106.6656 98° East 389 448 31,600 -780 Descending Denver Center
02:54PM 41.3494 -106.4978 98° East 405 466 31,000 -300 Descending Denver Center
02:55PM 41.3331 -106.3614 99° East 398 458 31,000  Level Denver Center
02:56PM 41.3178 -106.2056 97° East 387 445 31,000  Level Denver Center
02:57PM 41.3014 -106.0692 99° East 388 447 31,000  Level Denver Center
02:58PM 41.2844 -105.9139 98° East 383 441 31,000 -300 Level Denver Center
02:59PM 41.2697 -105.7806 98° East 381 438 30,400 -1,380 Descending Denver Center
03:01PM 41.2519 -105.6306 99° East 373 429 28,000 -2,580 Descending Denver Center
03:02PM 41.2344 -105.4797 99° East 370 426 24,600 -3,480 Descending Denver Center
03:03PM 41.2119 -105.3367 102° East 362 417 20,800 -3,660 Descending Denver Center
03:04PM 41.1961 -105.2136 100° East 355 409 17,100 -3,060 Descending Denver Center
03:05PM 41.2056 -105.0817 85° East 345 397 14,500 -1,740 Descending Denver Center
03:06PM 41.2719 -105.0578 15° North 265 305 13,600 -900 Descending Denver Center
03:08PM 41.1897 -104.8828 99° East  Level Estimated
03:15PM 41.1556 -104.8105 99° East  Level Estimated
03:16PM 41.1556 -104.8105 99° East  Level Estimated
03:17PM 41.1556 -104.8105 99° East  Level Estimated
03:18PM 41.1556 -104.8105 99° East  Level Estimated
03:19PM 41.1556 -104.8105 99° East  Level Estimated